Аэропорт: Сары-Арка. Караганда

ICAO: UAKK

METAR:
2021-10-23 00:00:00
UAKK 230000Z 23012MPS 9999 -SHSNRA BKN008 OVC017CB 01/M00 Q1025 R23/1///65 TEMPO 22018MPS 1000 SHSNRA BKN005 OVC011CB RMK QFE722/0962
METAR:
2021-10-22 23:00:00
TAF UAKK 222300Z 2300/2324 22011MPS 4000 -SNRA BKN011 OVC030 TX07/2310Z TN01/2301Z TEMPO 2300/2306 22017MPS 1000 SHSNRA SCT005 BKN011CB BECMG 2306/2308 9999 NSW SCT020 BKN100 TEMPO 2306/2312 22018MPS 5000 -SHRA SCT011 BKN020CB